Portada
METAR-TAF:

METAR-TAF

Aeroports :

Darwin, Austràlia

latitud: 12-24S, longitud: 130-52E, altitud: 31 m

Observació

L'informe es va fer fa 38 minuts, a les 07:00 UTC
Vent 12 kt del Oest
Temperatura 33°C
Humitat 59%
Pressió 1004 hPa
Visibilitat 10 km o més
Núvols disperses a una alçada de 3000 ft
Cel ennuvolat a una alçada de 35000 ft

METAR: YPDN 110700Z 28012KT 9999 SCT030 BKN350 33/24 Q1004

Hora: 17:08 (07:38 UTC)

Pronòstic

L'informe es va fer fa 2 hores i 32 minuts, a les 05:06 UTC
Pronòstic vàlid del 11 a les 06 UTC al 12 a les 12 UTC
Vent 14 kt del Oest
Visibilitat 10 km o més
Núvols disperses a una alçada de 3000 ft
A partir de les 11 a les 0900 UTC
Vent 10 kt del Oest
Visibilitat 10 km o més
Escasses núvols a una alçada de 2000 ft
A partir de les 12 a les 0200 UTC
Vent 15 kt del Oest
Visibilitat 10 km o més
Núvols disperses a una alçada de 3000 ft

TAF: YPDN 110506Z 1106/1212 27014KT 9999 SCT030 FM110900 28010KT 9999 FEW020 FM120200 28015KT 9999 SCT030

Observacions i pronòstics meteorològics de més de 4000 aeroports (METAR i TAF).

Les estacions disponibles són els punts grocs i vermells al mapa.

Posi el ratolí al punt desitjat per veure el nom de l'estació.

Feu clic per veure les observacions i els pronòstics meteorològics.

Per canviar el mapa: feu clic els botons verds amb una creu de color negre per apropar; al botó verd amb un guió per allunyar la imatge; o en les fletxes verdes per a mapes adjacents.


METAR-TAF: